Time;durP1;ratioP1;P1;durP2;ratioP2;P2;SDS_P1;SDS_P2;PMS_P1;PMS_P2;Temp;Humidity;BMP_temperature;BMP_pressure;BME280_temperature;BME280_humidity;BME280_pressure;Samples;Min_cycle;Max_cycle;Signal;HPM_P1;HPM_P2
2024/03/28 00:02:03;;;;;;;11.13;4.88;;;;;;;13.22;76.20;97825.56;5064907;28;20028;-66
2024/03/28 00:04:28;;;;;;;8.63;4.55;;;;;;;13.26;76.51;97822.72;5051766;28;20432;-67
2024/03/28 00:06:54;;;;;;;8.93;4.53;;;;;;;13.22;76.86;97822.84;5032639;28;20036;-66
2024/03/28 00:09:20;;;;;;;10.85;4.97;;;;;;;13.18;76.57;97818.78;5054447;28;20033;-66
2024/03/28 00:11:46;;;;;;;11.43;4.38;;;;;;;13.13;76.76;97809.31;5032088;28;20056;-67
2024/03/28 00:14:13;;;;;;;8.98;4.45;;;;;;;13.14;76.57;97807.38;5040355;28;20045;-67
2024/03/28 00:16:38;;;;;;;10.88;4.40;;;;;;;13.10;76.57;97791.28;5034860;28;20034;-67
2024/03/28 00:19:04;;;;;;;16.35;6.43;;;;;;;13.13;76.80;97789.63;5032085;28;20087;-66
2024/03/28 00:21:29;;;;;;;9.65;4.43;;;;;;;13.04;77.02;97776.84;5039234;28;20025;-67
2024/03/28 00:23:54;;;;;;;10.68;4.57;;;;;;;13.04;76.85;97776.06;5032136;28;20061;-66
2024/03/28 00:26:20;;;;;;;12.40;4.72;;;;;;;12.96;77.18;97767.44;5049714;28;20037;-65
2024/03/28 00:28:46;;;;;;;12.13;5.47;;;;;;;12.84;78.08;97751.31;5037249;28;20033;-66
2024/03/28 00:31:11;;;;;;;14.07;5.05;;;;;;;12.85;78.06;97745.47;5036011;28;20033;-65
2024/03/28 00:33:36;;;;;;;13.23;5.10;;;;;;;12.74;78.94;97750.50;5040763;28;20040;-66
2024/03/28 00:36:02;;;;;;;9.77;4.60;;;;;;;12.65;79.27;97766.63;5031709;28;20029;-65
2024/03/28 00:38:28;;;;;;;10.18;5.03;;;;;;;12.68;79.54;97780.00;5021363;28;20033;-66
2024/03/28 00:40:54;;;;;;;9.07;4.60;;;;;;;12.68;79.00;97790.81;5033656;28;20032;-65
2024/03/28 00:43:22;;;;;;;10.60;4.80;;;;;;;12.72;79.37;97793.38;5033162;28;20061;-66
2024/03/28 00:45:48;;;;;;;12.25;4.95;;;;;;;12.78;78.94;97777.38;5056231;28;20048;-66
2024/03/28 00:48:17;;;;;;;10.05;5.00;;;;;;;12.86;78.01;97776.69;5034051;28;20033;-66
2024/03/28 00:50:57;;;;;;;10.38;5.32;;;;;;;12.83;77.77;97769.47;5040091;28;20123;-66
2024/03/28 00:53:22;;;;;;;11.52;5.90;;;;;;;12.84;77.22;97764.81;5034300;28;20044;-67
2024/03/28 00:55:48;;;;;;;15.98;5.97;;;;;;;12.79;77.60;97763.44;5046555;28;20026;-67
2024/03/28 00:58:14;;;;;;;14.25;5.70;;;;;;;12.75;78.08;97765.50;5049654;28;20753;-65
2024/03/28 01:00:41;;;;;;;14.02;6.10;;;;;;;12.67;78.61;97754.22;5066249;28;20072;-66
2024/03/28 01:03:08;;;;;;;17.33;6.35;;;;;;;12.66;78.50;97746.53;5030031;28;20029;-65
2024/03/28 01:05:34;;;;;;;12.88;5.97;;;;;;;12.59;79.06;97731.34;5038590;28;20040;-65
2024/03/28 01:08:00;;;;;;;15.13;5.63;;;;;;;12.53;79.39;97716.91;5015941;28;20030;-66
2024/03/28 01:10:25;;;;;;;15.65;5.97;;;;;;;12.58;79.04;97716.34;5043111;28;20093;-66
2024/03/28 01:12:51;;;;;;;11.02;5.43;;;;;;;12.54;79.14;97717.69;5034628;28;20394;-67
2024/03/28 01:15:18;;;;;;;14.07;6.70;;;;;;;12.41;79.54;97725.06;5045868;28;20048;-65
2024/03/28 01:17:44;;;;;;;11.93;5.82;;;;;;;12.43;79.97;97720.75;5030063;28;20231;-66
2024/03/28 01:20:10;;;;;;;15.90;6.53;;;;;;;12.39;80.51;97717.41;5031697;28;20643;-65
2024/03/28 01:22:37;;;;;;;10.93;5.30;;;;;;;12.40;80.22;97713.53;5062201;28;20064;-65
2024/03/28 01:25:07;;;;;;;17.90;6.57;;;;;;;12.36;80.40;97720.22;5040989;28;20049;-67
2024/03/28 01:27:40;;;;;;;13.13;5.97;;;;;;;12.38;81.45;97720.56;5034634;28;20037;-66
2024/03/28 01:30:07;;;;;;;14.32;7.07;;;;;;;12.38;81.47;97717.84;5032574;28;20559;-66
2024/03/28 01:32:32;;;;;;;14.48;5.65;;;;;;;12.37;81.55;97717.09;5063606;28;20401;-66
2024/03/28 01:34:58;;;;;;;13.35;6.28;;;;;;;12.30;82.01;97706.56;5066969;28;20041;-66
2024/03/28 01:37:23;;;;;;;13.02;5.97;;;;;;;12.34;81.82;97707.19;5031931;28;20026;-66
2024/03/28 01:39:49;;;;;;;13.27;5.88;;;;;;;12.42;81.44;97710.38;5032224;28;20706;-66
2024/03/28 01:42:14;;;;;;;16.88;6.53;;;;;;;12.45;81.28;97698.69;5042917;28;21546;-67
2024/03/28 01:44:40;;;;;;;15.98;6.15;;;;;;;12.42;81.64;97697.66;5032021;28;20053;-66
2024/03/28 01:47:06;;;;;;;12.93;5.65;;;;;;;12.40;81.04;97694.63;5012586;28;20152;-69
2024/03/28 01:49:33;;;;;;;12.25;6.22;;;;;;;12.42;80.61;97680.69;5036516;28;20127;-66
2024/03/28 01:52:01;;;;;;;12.18;5.93;;;;;;;12.25;82.29;97693.59;5018325;28;20119;-67
2024/03/28 01:54:29;;;;;;;18.13;6.68;;;;;;;12.40;81.69;97697.34;5028286;28;20132;-67
2024/03/28 01:56:55;;;;;;;13.55;6.38;;;;;;;12.41;81.06;97688.03;5025215;28;20033;-67
2024/03/28 01:59:21;;;;;;;16.50;6.10;;;;;;;12.40;81.07;97683.09;5048858;28;20040;-66
2024/03/28 02:01:47;;;;;;;13.75;6.93;;;;;;;12.43;80.94;97677.56;5033518;28;20413;-66
2024/03/28 02:04:12;;;;;;;12.95;5.65;;;;;;;12.39;81.36;97671.53;5032776;28;20076;-67
2024/03/28 02:06:38;;;;;;;13.05;5.97;;;;;;;12.37;81.36;97670.44;5032154;28;20026;-66
2024/03/28 02:09:05;;;;;;;13.30;6.07;;;;;;;12.30;81.55;97681.50;5013638;28;20025;-66
2024/03/28 02:11:32;;;;;;;14.68;6.57;;;;;;;12.36;81.53;97671.66;5045789;28;20036;-67
2024/03/28 02:13:58;;;;;;;12.55;6.70;;;;;;;12.35;81.07;97660.09;5017688;28;20025;-68
2024/03/28 02:16:24;;;;;;;18.40;6.55;;;;;;;12.24;81.47;97664.38;5028612;28;20116;-66
2024/03/28 02:18:55;;;;;;;11.45;5.78;;;;;;;12.26;81.58;97668.16;5013698;28;20040;-66
2024/03/28 02:21:20;;;;;;;14.63;6.72;;;;;;;12.16;81.82;97668.50;5024359;28;20057;-66
2024/03/28 02:23:46;;;;;;;15.15;6.57;;;;;;;12.14;82.20;97666.25;5061049;28;20107;-66
2024/03/28 02:26:12;;;;;;;14.15;6.82;;;;;;;12.18;82.51;97664.19;5033743;28;20124;-66
2024/03/28 02:28:37;;;;;;;10.88;6.05;;;;;;;12.18;82.36;97663.44;5009448;28;20487;-66
2024/03/28 02:31:03;;;;;;;12.15;5.97;;;;;;;12.16;81.88;97652.31;5024023;28;20510;-66
2024/03/28 02:33:28;;;;;;;13.90;6.47;;;;;;;12.24;81.71;97654.34;5029913;28;20071;-67
2024/03/28 02:35:54;;;;;;;12.00;6.10;;;;;;;12.21;82.52;97654.47;5034181;28;20549;-67
2024/03/28 02:38:19;;;;;;;12.25;6.22;;;;;;;12.18;81.83;97663.44;5011126;28;20041;-66
2024/03/28 02:40:45;;;;;;;17.27;6.32;;;;;;;12.13;82.46;97648.56;5038845;28;20056;-66
2024/03/28 02:43:10;;;;;;;15.18;7.25;;;;;;;12.10;82.36;97644.03;5029196;28;20636;-67
2024/03/28 02:45:37;;;;;;;15.20;6.85;;;;;;;12.06;83.09;97640.72;5045254;28;20108;-66
2024/03/28 02:48:04;;;;;;;14.52;6.70;;;;;;;12.23;82.39;97641.28;5046945;28;20017;-67
2024/03/28 02:50:29;;;;;;;16.23;6.90;;;;;;;12.20;81.79;97642.91;5027714;28;20060;-67
2024/03/28 02:52:55;;;;;;;13.93;6.38;;;;;;;12.13;82.66;97643.19;5017869;28;20021;-66
2024/03/28 02:55:20;;;;;;;14.95;6.40;;;;;;;12.08;82.94;97637.59;5031315;28;20033;-69
2024/03/28 02:57:46;;;;;;;20.05;7.25;;;;;;;12.30;81.54;97639.09;5012199;28;20161;-66
2024/03/28 03:00:12;;;;;;;15.88;7.63;;;;;;;12.35;81.09;97633.13;5029734;28;20025;-67
2024/03/28 03:02:37;;;;;;;14.60;6.28;;;;;;;12.35;80.95;97633.13;5035270;28;20021;-66
2024/03/28 03:05:03;;;;;;;15.55;6.80;;;;;;;12.38;80.61;97634.94;5024397;28;20029;-66
2024/03/28 03:07:29;;;;;;;15.65;7.75;;;;;;;12.32;81.28;97633.25;5030199;28;20053;-67
2024/03/28 03:09:55;;;;;;;17.17;7.50;;;;;;;12.32;81.11;97627.84;5027104;28;20077;-69
2024/03/28 03:12:20;;;;;;;15.43;6.90;;;;;;;12.26;81.56;97627.69;5031994;28;20125;-66
2024/03/28 03:14:48;;;;;;;15.10;6.72;;;;;;;12.20;81.17;97639.47;5023221;28;20120;-69
2024/03/28 03:17:15;;;;;;;22.10;7.95;;;;;;;12.06;82.11;97634.59;5031887;28;20025;-67
2024/03/28 03:19:40;;;;;;;17.30;7.65;;;;;;;12.03;82.56;97640.84;5042516;28;20405;-67
2024/03/28 03:22:06;;;;;;;18.65;7.85;;;;;;;12.14;81.90;97644.66;5044843;28;20056;-67
2024/03/28 03:24:34;;;;;;;18.20;7.50;;;;;;;12.03;81.92;97638.16;5043417;28;20032;-67
2024/03/28 03:27:04;;;;;;;15.27;7.43;;;;;;;12.05;81.69;97625.72;5046755;28;20017;-66
2024/03/28 03:35:21;;;;;;;16.08;7.60;;;;;;;11.63;84.69;97679.09;5053876;28;20075;-66
2024/03/28 03:37:46;;;;;;;13.82;7.13;;;;;;;11.43;85.33;97672.47;5059801;28;20507;-66
2024/03/28 03:40:13;;;;;;;13.95;6.68;;;;;;;11.81;84.42;97675.84;5046734;28;20045;-67
2024/03/28 03:42:39;;;;;;;17.08;7.60;;;;;;;11.92;83.52;97678.22;5031599;28;20032;-67
2024/03/28 03:45:05;;;;;;;18.80;7.07;;;;;;;11.92;83.61;97672.81;5028069;28;20477;-67
2024/03/28 03:47:31;;;;;;;14.80;7.47;;;;;;;12.01;83.15;97670.19;5046854;28;20045;-67
2024/03/28 03:49:57;;;;;;;17.60;7.80;;;;;;;11.99;83.25;97673.34;5048864;28;20419;-67
2024/03/28 03:52:23;;;;;;;18.02;7.82;;;;;;;12.00;83.89;97666.72;5047801;28;20032;-69
2024/03/28 03:54:48;;;;;;;24.08;8.90;;;;;;;12.00;83.29;97664.03;5060836;28;20466;-66
2024/03/28 03:57:14;;;;;;;17.52;8.38;;;;;;;11.95;83.79;97663.84;5033862;28;20029;-67
2024/03/28 03:59:39;;;;;;;23.45;8.80;;;;;;;12.02;83.72;97658.97;5033179;28;20040;-66
2024/03/28 04:02:06;;;;;;;20.30;8.18;;;;;;;12.05;83.67;97657.34;5033543;28;20025;-67
2024/03/28 04:04:32;;;;;;;20.63;8.07;;;;;;;12.13;82.56;97640.47;5033104;28;20562;-67
2024/03/28 04:06:57;;;;;;;18.10;8.30;;;;;;;11.99;83.84;97646.34;5044543;28;20113;-67
2024/03/28 04:09:24;;;;;;;14.57;8.23;;;;;;;12.05;83.88;97639.22;5043966;28;20040;-69
2024/03/28 04:11:50;;;;;;;16.17;7.57;;;;;;;12.07;83.91;97633.38;5032577;28;20029;-66
2024/03/28 04:14:16;;;;;;;17.17;7.50;;;;;;;11.93;83.93;97639.25;5032208;28;20068;-67
2024/03/28 04:16:42;;;;;;;14.43;7.85;;;;;;;12.11;82.96;97631.31;5035545;28;20394;-68
2024/03/28 04:19:08;;;;;;;17.15;8.13;;;;;;;12.03;83.36;97633.50;5047250;28;20025;-68
2024/03/28 04:21:34;;;;;;;14.07;7.72;;;;;;;12.11;82.87;97628.63;5053223;28;20406;-67
2024/03/28 04:24:06;;;;;;;15.60;7.45;;;;;;;12.01;84.16;97618.94;5030614;28;20040;-68
2024/03/28 04:26:33;;;;;;;20.42;8.48;;;;;;;12.14;83.33;97620.41;5031785;28;20041;-68
2024/03/28 04:28:59;;;;;;;18.38;6.97;;;;;;;11.95;83.81;97613.38;5063683;28;20119;-67
2024/03/28 04:31:24;;;;;;;18.67;7.35;;;;;;;11.94;84.21;97617.28;5046566;28;20030;-68
2024/03/28 04:33:53;;;;;;;15.57;7.35;;;;;;;12.03;84.83;97613.88;5029833;28;20026;-67
2024/03/28 04:36:18;;;;;;;18.55;7.15;;;;;;;11.94;85.21;97619.97;5049588;28;20512;-67
2024/03/28 04:38:44;;;;;;;20.00;8.00;;;;;;;11.85;85.30;97616.41;5027421;28;20048;-67
2024/03/28 04:41:11;;;;;;;18.15;7.78;;;;;;;11.93;85.46;97612.28;5045510;28;20033;-67
2024/03/28 04:43:37;;;;;;;17.27;7.75;;;;;;;12.01;85.77;97614.31;5062082;28;20047;-67
2024/03/28 04:46:03;;;;;;;16.58;7.35;;;;;;;11.86;86.44;97616.00;5072555;28;20100;-67
2024/03/28 04:48:29;;;;;;;20.10;7.05;;;;;;;11.75;88.04;97613.66;5038697;28;20033;-67
2024/03/28 04:50:56;;;;;;;15.60;7.10;;;;;;;12.08;86.87;97619.44;5046651;28;20044;-66
2024/03/28 04:53:21;;;;;;;15.32;7.40;;;;;;;11.91;88.92;97612.75;5047371;28;20055;-67
2024/03/28 04:55:47;;;;;;;16.13;7.35;;;;;;;11.92;89.21;97616.19;5034357;28;20075;-67
2024/03/28 04:58:12;;;;;;;18.23;7.63;;;;;;;11.93;90.17;97615.75;5048573;28;20033;-66
2024/03/28 05:00:38;;;;;;;14.52;6.78;;;;;;;11.83;90.84;97614.16;5030973;28;20140;-67
2024/03/28 05:03:05;;;;;;;15.48;6.88;;;;;;;11.54;91.88;97613.59;5028809;28;20086;-67
2024/03/28 05:05:31;;;;;;;15.02;7.00;;;;;;;11.74;92.10;97617.56;5013652;28;20033;-67
2024/03/28 05:07:56;;;;;;;14.13;6.65;;;;;;;11.72;91.62;97611.09;5048078;28;20119;-67
2024/03/28 05:10:21;;;;;;;12.65;6.22;;;;;;;11.61;93.38;97605.28;5028588;28;20137;-67
2024/03/28 05:12:47;;;;;;;14.13;6.35;;;;;;;11.74;92.15;97596.00;5044788;28;20057;-69
2024/03/28 05:15:13;;;;;;;15.40;6.43;;;;;;;11.79;92.93;97594.66;5030778;28;20033;-67
2024/03/28 05:17:39;;;;;;;15.73;6.85;;;;;;;11.90;91.55;97597.00;5065474;28;20031;-68
2024/03/28 05:20:06;;;;;;;13.68;6.65;;;;;;;11.77;91.08;97594.34;5044426;28;20040;-66
2024/03/28 05:22:32;;;;;;;18.40;6.80;;;;;;;11.70;93.14;97581.88;5045323;28;20033;-67
2024/03/28 05:24:57;;;;;;;16.02;7.13;;;;;;;11.61;94.93;97594.50;5037983;28;20042;-67
2024/03/28 05:27:23;;;;;;;18.95;7.13;;;;;;;11.80;94.06;97590.78;5039320;28;20392;-67
2024/03/28 05:29:48;;;;;;;20.52;7.47;;;;;;;11.71;94.31;97588.75;5035178;28;20388;-67
2024/03/28 05:32:14;;;;;;;14.68;6.72;;;;;;;11.78;94.28;97582.38;5045929;28;20048;-67
2024/03/28 05:34:41;;;;;;;17.83;6.65;;;;;;;11.89;93.86;97585.47;5024382;28;20036;-68
2024/03/28 05:37:06;;;;;;;11.05;5.45;;;;;;;11.95;93.51;97586.41;5033771;28;20176;-68
2024/03/28 05:39:32;;;;;;;15.95;6.25;;;;;;;11.86;93.07;97582.88;5033367;28;20116;-67
2024/03/28 05:41:57;;;;;;;14.40;6.13;;;;;;;11.75;93.56;97580.53;5045625;28;20044;-67
2024/03/28 05:44:23;;;;;;;12.32;5.07;;;;;;;11.67;95.03;97573.91;5033018;28;20059;-68
2024/03/28 05:46:49;;;;;;;12.77;5.35;;;;;;;11.68;95.69;97573.47;5046817;28;20509;-68
2024/03/28 05:49:14;;;;;;;14.27;5.88;;;;;;;11.77;95.42;97567.38;5034279;28;20041;-67
2024/03/28 05:51:40;;;;;;;11.02;5.28;;;;;;;11.63;96.30;97563.22;5033303;28;20025;-69
2024/03/28 05:54:06;;;;;;;12.20;6.15;;;;;;;11.84;95.41;97572.53;5029088;28;20032;-67
2024/03/28 05:56:31;;;;;;;10.00;5.45;;;;;;;11.69;96.23;97572.28;5039166;28;20047;-68
2024/03/28 05:58:58;;;;;;;11.10;3.90;;;;;;;11.54;96.72;97567.78;5030056;28;20033;-67
2024/03/28 06:01:24;;;;;;;9.20;4.40;;;;;;;11.65;96.10;97571.63;5012832;28;20030;-68
2024/03/28 06:03:49;;;;;;;7.28;3.58;;;;;;;11.42;97.09;97572.03;5048568;28;20625;-66
2024/03/28 06:06:15;;;;;;;8.40;3.88;;;;;;;11.64;96.56;97564.72;5051490;28;20049;-66
2024/03/28 06:08:40;;;;;;;8.60;3.05;;;;;;;11.60;96.84;97566.03;5042524;28;20037;-68
2024/03/28 06:11:06;;;;;;;5.70;3.17;;;;;;;11.58;96.15;97557.63;5033214;28;20048;-67
2024/03/28 06:13:32;;;;;;;6.40;2.85;;;;;;;11.68;95.84;97553.84;5031175;28;20753;-68
2024/03/28 06:15:58;;;;;;;5.13;3.08;;;;;;;11.42;97.29;97542.38;5065427;28;20108;-67
2024/03/28 06:18:24;;;;;;;6.13;3.08;;;;;;;11.45;97.81;97543.47;5047771;28;20038;-68
2024/03/28 06:21:00;;;;;;;3.75;2.08;;;;;;;11.42;97.76;97555.84;5031240;28;20572;-70
2024/03/28 06:23:26;;;;;;;3.88;2.53;;;;;;;11.46;97.94;97553.03;5047333;28;20034;-66
2024/03/28 06:25:52;;;;;;;4.18;2.33;;;;;;;11.33;97.46;97565.78;5049195;28;20109;-66
2024/03/28 06:28:19;;;;;;;4.47;2.00;;;;;;;11.20;98.61;97560.44;5050629;28;20113;-67
2024/03/28 06:30:45;;;;;;;3.83;2.13;;;;;;;11.24;97.55;97569.19;5030544;28;20138;-68
2024/03/28 06:33:11;;;;;;;3.20;1.73;;;;;;;11.35;97.74;97568.81;5027435;28;20029;-67
2024/03/28 06:35:37;;;;;;;3.60;1.80;;;;;;;11.41;98.20;97561.69;5042269;28;20029;-68
2024/03/28 06:38:03;;;;;;;4.97;1.95;;;;;;;11.53;96.46;97558.97;5028622;28;20049;-68
2024/03/28 06:40:29;;;;;;;3.88;1.83;;;;;;;11.62;97.03;97555.56;5028855;28;20038;-67
2024/03/28 06:42:54;;;;;;;2.85;1.85;;;;;;;11.65;96.60;97565.50;5036920;28;20039;-66
2024/03/28 06:45:20;;;;;;;4.72;2.03;;;;;;;11.52;96.08;97568.22;5026615;28;20518;-67
2024/03/28 06:47:46;;;;;;;2.58;1.50;;;;;;;11.68;96.59;97576.16;5064432;28;20025;-67
2024/03/28 06:50:11;;;;;;;4.70;2.20;;;;;;;11.62;95.72;97577.88;5047600;28;20499;-67
2024/03/28 06:52:37;;;;;;;5.57;2.05;;;;;;;11.49;95.92;97579.13;5044126;28;20510;-68
2024/03/28 06:55:02;;;;;;;3.35;2.08;;;;;;;11.26;97.03;97584.91;5012485;28;20032;-68
2024/03/28 06:57:28;;;;;;;4.38;2.05;;;;;;;11.08;99.12;97582.00;5029891;28;20164;-67
2024/03/28 06:59:53;;;;;;;2.70;1.80;;;;;;;11.19;98.32;97579.75;5028200;28;20083;-66
2024/03/28 07:02:20;;;;;;;2.83;1.55;;;;;;;11.30;98.48;97577.44;5043024;28;20033;-66
2024/03/28 07:04:47;;;;;;;4.18;1.60;;;;;;;11.06;98.52;97579.00;5060802;28;20026;-66
2024/03/28 07:07:12;;;;;;;2.05;1.63;;;;;;;11.09;98.09;97580.84;5027641;28;20030;-67
2024/03/28 07:09:38;;;;;;;3.33;1.92;;;;;;;11.09;99.16;97572.75;5024651;28;20046;-70
2024/03/28 07:12:04;;;;;;;2.50;1.20;;;;;;;11.02;99.50;97579.13;5023060;28;20021;-65
2024/03/28 07:14:30;;;;;;;1.85;1.33;;;;;;;11.03;99.18;97587.94;5031843;28;20487;-67
2024/03/28 07:16:55;;;;;;;2.20;1.25;;;;;;;10.90;99.10;97591.41;5044610;28;20163;-66
2024/03/28 07:19:21;;;;;;;3.78;1.48;;;;;;;10.78;100.00;97589.47;5042318;28;20041;-66
2024/03/28 07:21:46;;;;;;;1.98;1.30;;;;;;;10.81;100.00;97588.63;5030031;28;20090;-67
2024/03/28 07:24:12;;;;;;;2.08;1.13;;;;;;;10.88;100.00;97584.94;5035544;28;20033;-67
2024/03/28 07:26:37;;;;;;;2.38;1.30;;;;;;;10.88;100.00;97584.94;5039987;28;20045;-67
2024/03/28 07:29:03;;;;;;;2.08;1.40;;;;;;;10.92;100.00;97590.22;5032054;28;20037;-68
2024/03/28 07:31:30;;;;;;;1.75;1.20;;;;;;;10.90;100.00;97594.09;5057883;28;20122;-67
2024/03/28 07:33:56;;;;;;;3.25;1.10;;;;;;;10.97;100.00;97592.38;5031989;28;20039;-67
2024/03/28 07:36:22;;;;;;;2.08;1.17;;;;;;;10.99;100.00;97596.16;5045703;28;20105;-66
2024/03/28 07:38:48;;;;;;;1.13;0.90;;;;;;;11.00;100.00;97596.88;5030442;28;20413;-67
2024/03/28 07:41:14;;;;;;;1.83;1.13;;;;;;;11.11;100.00;97591.94;5031372;28;20033;-67
2024/03/28 07:43:40;;;;;;;1.67;0.90;;;;;;;10.88;100.00;97590.31;5060362;28;20471;-68
2024/03/28 07:46:06;;;;;;;2.30;1.00;;;;;;;10.92;100.00;97590.97;5027133;28;20041;-67
2024/03/28 07:48:35;;;;;;;1.73;1.08;;;;;;;10.99;99.84;97598.06;5029802;28;20049;-67
2024/03/28 07:51:02;;;;;;;1.58;1.02;;;;;;;10.82;100.00;97589.34;5028522;28;20037;-67
2024/03/28 07:53:29;;;;;;;1.13;0.85;;;;;;;11.06;100.00;97597.84;5030606;28;20029;-67
2024/03/28 07:55:54;;;;;;;1.15;0.80;;;;;;;11.10;100.00;97593.09;5061564;28;20494;-67
2024/03/28 07:58:21;;;;;;;1.40;1.05;;;;;;;11.14;100.00;97597.19;5046288;28;20072;-68
2024/03/28 08:00:46;;;;;;;1.80;1.35;;;;;;;11.30;99.76;97593.63;5028163;28;20029;-70
2024/03/28 08:03:16;;;;;;;2.28;1.10;;;;;;;11.34;98.41;97592.28;5032622;28;20483;-67
2024/03/28 08:05:46;;;;;;;2.00;1.30;;;;;;;11.38;97.15;97594.91;5032631;28;20075;-68
2024/03/28 08:08:13;;;;;;;3.38;1.75;;;;;;;11.33;98.06;97590.03;5027751;28;20025;-68
2024/03/28 08:10:38;;;;;;;1.40;0.90;;;;;;;11.33;97.70;97582.72;5032980;28;20041;-66
2024/03/28 08:13:04;;;;;;;1.73;0.98;;;;;;;11.29;98.31;97584.78;5043781;28;20071;-67
2024/03/28 08:15:31;;;;;;;1.33;1.10;;;;;;;11.31;97.69;97590.47;5023926;28;20059;-66
2024/03/28 08:17:58;;;;;;;1.83;1.27;;;;;;;11.32;98.18;97592.00;5046507;28;20032;-70
2024/03/28 08:20:24;;;;;;;1.23;0.98;;;;;;;-144.12;100.00;72078.50;5047517;28;20478;-67
2024/03/28 08:22:50;;;;;;;1.70;1.00;;;;;;;-144.12;100.00;72078.50;5029957;28;20030;-66
2024/03/28 08:25:16;;;;;;;1.75;1.20;;;;;;;-144.12;100.00;72078.50;5030032;28;20483;-67
2024/03/28 08:27:41;;;;;;;1.75;1.10;;;;;;;-144.12;100.00;72078.50;5034068;28;20136;-67
2024/03/28 08:30:07;;;;;;;1.20;0.70;;;;;;;-144.12;100.00;72078.50;5047975;28;20030;-66
2024/03/28 08:32:34;;;;;;;0.93;0.63;;;;;;;-144.12;100.00;72078.50;5049655;28;20124;-65
2024/03/28 08:35:00;;;;;;;1.27;0.82;;;;;;;-144.12;100.00;72078.50;5030307;28;20029;-71
2024/03/28 08:37:26;;;;;;;2.25;1.15;;;;;;;-144.12;100.00;72078.50;5033524;28;20080;-67
2024/03/28 08:39:52;;;;;;;1.20;1.05;;;;;;;-144.12;100.00;72078.50;5030533;28;20056;-66
2024/03/28 08:42:18;;;;;;;1.85;0.95;;;;;;;-144.12;100.00;72078.50;5030774;28;20034;-67
2024/03/28 08:44:47;;;;;;;1.40;0.80;;;;;;;-144.12;100.00;72078.50;5047924;28;20407;-66
2024/03/28 08:47:14;;;;;;;1.80;1.10;;;;;;;-144.12;100.00;72078.50;5046692;28;20021;-67
2024/03/28 08:49:40;;;;;;;1.25;0.88;;;;;;;-144.12;100.00;72078.50;5032697;28;20030;-68
2024/03/28 08:52:06;;;;;;;2.10;1.40;;;;;;;-144.12;100.00;72078.50;5034833;28;20025;-67
2024/03/28 08:54:31;;;;;;;1.27;1.08;;;;;;;-144.12;100.00;72078.50;5030707;28;20037;-67
2024/03/28 08:56:57;;;;;;;1.73;1.10;;;;;;;-144.12;100.00;72078.50;5033458;28;20030;-68
2024/03/28 08:59:23;;;;;;;1.30;0.90;;;;;;;-144.12;100.00;72078.50;5027576;28;20482;-66
2024/03/28 09:01:49;;;;;;;2.45;1.13;;;;;;;-144.12;100.00;72078.50;5031923;28;20029;-66
2024/03/28 09:04:19;;;;;;;3.10;1.35;;;;;;;-144.12;100.00;72078.50;5034554;28;20395;-67
2024/03/28 09:06:45;;;;;;;1.23;1.13;;;;;;;-144.12;100.00;72078.50;5034227;28;20235;-66
2024/03/28 09:09:11;;;;;;;2.28;1.52;;;;;;;-144.12;100.00;72078.50;5032226;28;20037;-66
2024/03/28 09:11:38;;;;;;;1.88;0.98;;;;;;;-144.12;100.00;72078.50;5031354;28;20029;-66
2024/03/28 09:14:03;;;;;;;2.60;1.15;;;;;;;-144.12;100.00;72078.50;5028790;28;20033;-66
2024/03/28 09:16:31;;;;;;;1.65;1.08;;;;;;;-144.12;100.00;72078.50;5033858;28;20029;-67
2024/03/28 09:18:57;;;;;;;1.75;1.10;;;;;;;-144.12;100.00;72078.50;5034416;28;20033;-68
2024/03/28 09:21:22;;;;;;;2.55;1.35;;;;;;;-144.12;100.00;72078.50;5034239;28;20037;-67
2024/03/28 09:23:48;;;;;;;1.25;0.82;;;;;;;-144.12;100.00;72078.50;5036256;28;20478;-67
2024/03/28 09:26:13;;;;;;;1.27;1.02;;;;;;;-144.12;100.00;72078.50;5032995;28;20129;-67
2024/03/28 09:28:38;;;;;;;2.42;1.17;;;;;;;-144.12;100.00;72078.50;5033314;28;20064;-68
2024/03/28 09:31:04;;;;;;;2.60;1.13;;;;;;;-144.12;100.00;72078.50;5028848;28;20139;-67
2024/03/28 09:33:30;;;;;;;3.38;1.42;;;;;;;-144.12;100.00;72078.50;5030101;28;20483;-65
2024/03/28 09:35:55;;;;;;;1.88;1.27;;;;;;;-144.12;100.00;72078.50;5031894;28;20029;-66
2024/03/28 09:38:20;;;;;;;2.10;1.30;;;;;;;-144.12;100.00;72078.50;5034219;28;20025;-67
2024/03/28 09:40:59;;;;;;;1.77;1.00;;;;;;;-144.12;100.00;72078.50;5043059;28;20021;-66
2024/03/28 09:43:26;;;;;;;2.42;1.38;;;;;;;-144.12;100.00;72078.50;5030385;28;20068;-65
2024/03/28 09:45:58;;;;;;;2.13;1.15;;;;;;;-144.12;100.00;72078.50;5031456;28;20029;-66
2024/03/28 09:48:25;;;;;;;1.38;1.27;;;;;;;-144.12;100.00;72078.50;5033010;28;20025;-67
2024/03/28 09:50:52;;;;;;;1.67;0.98;;;;;;;-144.12;100.00;72078.50;5032369;28;20595;-66
2024/03/28 09:53:18;;;;;;;1.60;0.90;;;;;;;-144.12;100.00;72078.50;5010199;28;20045;-66
2024/03/28 09:55:44;;;;;;;1.42;0.85;;;;;;;-144.12;100.00;72078.50;5014501;28;20037;-67
2024/03/28 09:58:10;;;;;;;0.93;0.88;;;;;;;-144.12;100.00;72078.50;5028195;28;20422;-66
2024/03/28 10:00:36;;;;;;;2.17;0.77;;;;;;;-144.12;100.00;72078.50;5032330;28;20035;-67
2024/03/28 10:03:35;;;;;;;1.40;0.73;;;;;;;-144.12;100.00;72078.50;5049511;28;20041;-68
2024/03/28 10:06:01;;;;;;;2.08;0.70;;;;;;;-144.12;100.00;72078.50;5022243;28;20050;-66
2024/03/28 10:08:28;;;;;;;1.17;0.70;;;;;;;-144.12;100.00;72078.50;5028103;28;20036;-66
2024/03/28 10:10:54;;;;;;;1.92;0.95;;;;;;;-144.12;100.00;72078.50;5044019;28;20033;-66
2024/03/28 10:13:37;;;;;;;1.48;0.50;;;;;;;-144.12;100.00;72078.50;5011353;28;20406;-66
2024/03/28 10:16:06;;;;;;;1.30;0.75;;;;;;;-144.12;100.00;72078.50;5063785;28;20041;-65
2024/03/28 10:18:33;;;;;;;0.60;0.60;;;;;;;-144.12;100.00;72078.50;5048206;28;20026;-67
2024/03/28 10:20:59;;;;;;;1.05;0.70;;;;;;;-144.12;100.00;72078.50;5029993;28;20036;-67
2024/03/28 10:23:26;;;;;;;0.68;0.60;;;;;;;-144.12;100.00;72078.50;5028508;28;20056;-66
2024/03/28 10:25:52;;;;;;;1.20;0.80;;;;;;;-144.12;100.00;72078.50;5030445;28;20029;-66
2024/03/28 10:28:28;;;;;;;1.02;0.80;;;;;;;-144.12;100.00;72078.50;5028019;28;20114;-67
2024/03/28 10:30:55;;;;;;;0.57;0.57;;;;;;;-144.12;100.00;72078.50;5030847;28;20554;-66
2024/03/28 10:33:20;;;;;;;0.60;0.60;;;;;;;-144.12;100.00;72078.50;5010716;28;20087;-67
2024/03/28 10:35:56;;;;;;;2.17;0.50;;;;;;;-144.12;100.00;72078.50;5064462;28;20041;-66
2024/03/28 10:38:22;;;;;;;0.70;0.60;;;;;;;-144.12;100.00;72078.50;5026678;28;20103;-67
2024/03/28 10:40:54;;;;;;;0.70;0.70;;;;;;;-144.12;100.00;72078.50;5033125;28;20025;-68
2024/03/28 10:43:23;;;;;;;1.30;0.80;;;;;;;-144.12;100.00;72078.50;5030189;28;20049;-66
2024/03/28 10:45:51;;;;;;;0.30;0.30;;;;;;;-144.12;100.00;72078.50;5029421;28;20127;-67
2024/03/28 10:48:18;;;;;;;1.17;0.70;;;;;;;-144.12;100.00;72078.50;5030223;28;20026;-66
2024/03/28 10:51:06;;;;;;;1.27;0.85;;;;;;;-144.12;100.00;72078.50;5017497;28;20077;-67
2024/03/28 10:53:54;;;;;;;0.45;0.35;;;;;;;-144.12;100.00;72078.50;5048513;28;20025;-66
2024/03/28 10:56:22;;;;;;;0.68;0.50;;;;;;;-144.12;100.00;72078.50;5061691;28;20038;-66
2024/03/28 10:58:49;;;;;;;0.40;0.40;;;;;;;-144.12;100.00;72078.50;5044869;28;20033;-67
2024/03/28 11:01:18;;;;;;;0.90;0.45;;;;;;;-144.12;100.00;72078.50;5040724;28;20072;-67
2024/03/28 11:03:46;;;;;;;0.65;0.40;;;;;;;-144.12;100.00;72078.50;5045344;28;20030;-70
2024/03/28 11:06:13;;;;;;;1.02;0.50;;;;;;;-144.12;100.00;72078.50;5024162;28;20029;-66
2024/03/28 11:08:41;;;;;;;0.38;0.30;;;;;;;-144.12;100.00;72078.50;5027913;28;20021;-66
2024/03/28 11:11:07;;;;;;;1.50;0.40;;;;;;;-144.12;100.00;72078.50;5028416;28;20064;-67
2024/03/28 11:13:32;;;;;;;0.50;0.28;;;;;;;-144.12;100.00;72078.50;5030568;28;20056;-67
2024/03/28 11:16:06;;;;;;;1.08;0.60;;;;;;;-144.12;100.00;72078.50;5029777;28;20029;-69
2024/03/28 11:18:32;;;;;;;0.60;0.52;;;;;;;-144.12;100.00;72078.50;5043612;28;20033;-66
2024/03/28 11:21:00;;;;;;;0.98;0.70;;;;;;;-144.12;100.00;72078.50;5027257;28;20026;-67
2024/03/28 11:23:26;;;;;;;0.95;0.63;;;;;;;-144.12;100.00;72078.50;5028149;28;20128;-66
2024/03/28 11:26:05;;;;;;;4.13;0.93;;;;;;;-144.12;100.00;72078.50;5032447;28;20125;-66